createdAt,value
2019-03-18T00:00:05.432Z,79.10
2019-03-18T00:02:34.527Z,79.50
2019-03-18T00:05:04.048Z,79.50
2019-03-18T00:07:33.248Z,79.50
2019-03-18T00:10:02.389Z,79.40
2019-03-18T00:12:31.820Z,79.00
2019-03-18T00:15:02.245Z,78.90
2019-03-18T00:17:31.547Z,79.70
2019-03-18T00:20:00.785Z,79.60
2019-03-18T00:22:29.916Z,80.20
2019-03-18T00:24:59.259Z,80.40
2019-03-18T00:27:28.516Z,80.10
2019-03-18T00:29:57.779Z,79.90
2019-03-18T00:32:27.159Z,79.90
2019-03-18T00:34:56.280Z,80.20
2019-03-18T00:37:25.579Z,80.00
2019-03-18T00:39:54.632Z,79.80
2019-03-18T00:42:23.902Z,80.10
2019-03-18T00:44:52.968Z,79.50
2019-03-18T00:47:22.224Z,79.20
2019-03-18T00:49:51.420Z,79.00
2019-03-18T00:52:20.548Z,79.50
2019-03-18T00:54:49.710Z,79.50
2019-03-18T00:57:18.880Z,79.70
2019-03-18T00:59:47.949Z,79.50
2019-03-18T01:02:17.244Z,79.80
2019-03-18T01:04:46.425Z,80.40
2019-03-18T01:07:15.775Z,80.30
2019-03-18T01:09:44.874Z,80.40
2019-03-18T01:12:14.142Z,80.40
2019-03-18T01:14:43.479Z,80.20
2019-03-18T01:17:12.564Z,80.60
2019-03-18T01:19:41.968Z,80.00
2019-03-18T01:22:11.135Z,80.00
2019-03-18T01:24:40.413Z,79.10
2019-03-18T01:27:09.507Z,79.00
2019-03-18T01:29:38.658Z,79.20
2019-03-18T01:32:07.891Z,79.10
2019-03-18T01:34:37.197Z,79.50
2019-03-18T01:37:06.400Z,79.20
2019-03-18T01:39:35.514Z,78.90
2019-03-18T01:42:04.917Z,78.90
2019-03-18T01:44:34.184Z,78.90
2019-03-18T01:47:03.315Z,78.90
2019-03-18T01:49:32.556Z,79.10
2019-03-18T01:52:01.831Z,79.40
2019-03-18T01:54:30.989Z,79.10
2019-03-18T01:57:00.182Z,79.30
2019-03-18T01:59:29.403Z,79.20
2019-03-18T02:01:58.511Z,79.40
2019-03-18T02:04:27.582Z,79.30
2019-03-18T02:06:56.868Z,79.20
2019-03-18T02:09:26.165Z,79.20
2019-03-18T02:11:55.260Z,79.50
2019-03-18T02:14:24.617Z,79.70
2019-03-18T02:16:53.691Z,79.50
2019-03-18T02:19:23.009Z,79.80
2019-03-18T02:21:52.172Z,79.60
2019-03-18T02:24:21.375Z,79.80
2019-03-18T02:26:50.620Z,80.00
2019-03-18T02:29:19.707Z,79.60
2019-03-18T02:31:48.940Z,79.20
2019-03-18T02:34:18.177Z,79.90
2019-03-18T02:36:47.264Z,79.50
2019-03-18T02:39:16.360Z,79.50
2019-03-18T02:41:45.380Z,79.20
2019-03-18T02:44:14.503Z,78.50
2019-03-18T02:46:43.713Z,78.40
2019-03-18T02:49:13.065Z,78.40
2019-03-18T02:51:42.259Z,78.80
2019-03-18T02:54:11.357Z,78.80
2019-03-18T02:56:40.590Z,79.70
2019-03-18T02:59:09.761Z,79.90
2019-03-18T03:01:38.958Z,80.30
2019-03-18T03:04:08.199Z,80.30
2019-03-18T03:06:37.422Z,80.90
2019-03-18T03:09:07.776Z,80.60
2019-03-18T03:11:37.065Z,81.10
2019-03-18T03:14:06.064Z,80.80
2019-03-18T03:16:35.239Z,80.80
2019-03-18T03:19:04.432Z,80.80
2019-03-18T03:21:33.776Z,80.90
2019-03-18T03:24:03.004Z,80.50
2019-03-18T03:26:32.309Z,80.20
2019-03-18T03:29:01.476Z,80.20
2019-03-18T03:31:30.620Z,80.30
2019-03-18T03:33:59.776Z,80.30
2019-03-18T03:36:29.017Z,80.70
2019-03-18T03:38:58.176Z,80.30
2019-03-18T03:41:27.734Z,80.50
2019-03-18T03:43:57.001Z,80.30
2019-03-18T03:46:41.817Z,80.10
2019-03-18T03:48:57.234Z,80.30
2019-03-18T03:51:26.437Z,79.90
2019-03-18T03:53:55.777Z,80.10
2019-03-18T03:56:25.042Z,80.20
2019-03-18T03:58:54.441Z,80.30
2019-03-18T04:01:23.723Z,81.00
2019-03-18T04:03:52.937Z,80.90
2019-03-18T04:06:22.043Z,80.80
2019-03-18T04:08:51.303Z,81.00
2019-03-18T04:11:21.160Z,81.10
2019-03-18T04:13:50.256Z,80.80
2019-03-18T04:16:19.376Z,80.20
2019-03-18T04:18:48.508Z,79.80
2019-03-18T04:21:17.613Z,79.90
2019-03-18T04:23:46.953Z,80.00
2019-03-18T04:26:16.269Z,79.60
2019-03-18T04:28:45.432Z,78.50
2019-03-18T04:31:14.577Z,78.50
2019-03-18T04:33:43.653Z,78.50
2019-03-18T04:36:13.203Z,78.30
2019-03-18T04:38:42.608Z,78.50
2019-03-18T04:41:11.713Z,77.50
2019-03-18T04:43:40.974Z,77.80
2019-03-18T04:46:10.231Z,77.60
2019-03-18T04:48:39.519Z,77.40
2019-03-18T04:51:08.639Z,77.10
2019-03-18T04:53:37.698Z,77.70
2019-03-18T04:56:06.897Z,78.50
2019-03-18T04:58:36.201Z,79.20
2019-03-18T05:01:05.331Z,79.50
2019-03-18T05:03:34.547Z,79.80
2019-03-18T05:06:03.715Z,80.00
2019-03-18T05:08:32.839Z,79.80
2019-03-18T05:11:02.009Z,79.70
2019-03-18T05:13:31.163Z,79.50
2019-03-18T05:16:00.281Z,78.90
2019-03-18T05:18:29.519Z,77.50
2019-03-18T05:20:58.599Z,77.00
2019-03-18T05:23:27.904Z,75.50
2019-03-18T05:25:57.501Z,74.60
2019-03-18T05:28:26.703Z,74.50
2019-03-18T05:30:55.865Z,74.90
2019-03-18T05:33:24.991Z,74.80
2019-03-18T05:35:54.213Z,73.40
2019-03-18T05:38:27.611Z,73.50
2019-03-18T05:40:56.721Z,73.60
2019-03-18T05:43:26.089Z,73.70
2019-03-18T05:45:55.259Z,73.20
2019-03-18T05:48:24.687Z,73.60
2019-03-18T05:50:54.115Z,73.90
2019-03-18T05:53:23.331Z,74.10
2019-03-18T05:55:52.647Z,74.10
2019-03-18T05:58:21.839Z,74.50
2019-03-18T06:00:51.003Z,74.50
2019-03-18T06:03:20.197Z,75.00
2019-03-18T06:05:49.337Z,74.90
2019-03-18T06:08:18.486Z,75.00
2019-03-18T06:10:47.683Z,75.20
2019-03-18T06:13:16.886Z,75.80
2019-03-18T06:15:46.032Z,75.90
2019-03-18T06:18:15.380Z,76.20
2019-03-18T06:20:44.623Z,76.30
2019-03-18T06:23:13.980Z,76.60
2019-03-18T06:25:43.391Z,77.70
2019-03-18T06:28:12.696Z,77.40
2019-03-18T06:30:41.985Z,76.90
2019-03-18T06:33:11.264Z,78.70
2019-03-18T06:35:40.412Z,79.40
2019-03-18T06:38:09.781Z,80.20
2019-03-18T06:40:39.290Z,80.20
2019-03-18T06:43:11.597Z,80.50
2019-03-18T06:45:41.021Z,80.70
2019-03-18T06:48:16.733Z,81.40
2019-03-18T06:50:45.905Z,79.90
2019-03-18T06:53:18.128Z,79.80
2019-03-18T06:55:47.317Z,78.60
2019-03-18T06:58:16.635Z,78.50
2019-03-18T07:00:46.399Z,78.40
2019-03-18T07:03:15.599Z,78.60
2019-03-18T07:05:47.636Z,78.40
2019-03-18T07:08:17.372Z,78.00
2019-03-18T07:10:53.399Z,78.60
2019-03-18T07:13:22.812Z,78.40
2019-03-18T07:15:55.462Z,78.10
2019-03-18T07:18:24.919Z,78.30
2019-03-18T07:20:54.220Z,77.90
2019-03-18T07:23:23.456Z,78.20
2019-03-18T07:25:52.723Z,78.80
2019-03-18T07:28:21.971Z,78.10
2019-03-18T07:30:51.153Z,77.60
2019-03-18T07:33:22.608Z,77.60
2019-03-18T07:35:51.944Z,78.00
2019-03-18T07:38:21.078Z,77.90
2019-03-18T07:40:50.311Z,77.60
2019-03-18T07:43:19.470Z,77.80
2019-03-18T07:45:48.838Z,78.00
2019-03-18T07:48:29.975Z,78.00
2019-03-18T07:50:48.879Z,78.10
2019-03-18T07:53:18.394Z,78.50
2019-03-18T07:55:47.868Z,78.50
2019-03-18T07:58:17.263Z,78.70
2019-03-18T08:00:46.369Z,79.30
2019-03-18T08:03:15.647Z,79.20
2019-03-18T08:05:44.917Z,79.10
2019-03-18T08:08:14.137Z,79.80
2019-03-18T08:10:43.216Z,79.90
2019-03-18T08:13:12.297Z,79.10
2019-03-18T08:15:41.320Z,78.10
2019-03-18T08:18:10.419Z,77.90
2019-03-18T08:20:39.544Z,77.10
2019-03-18T08:23:08.768Z,77.30
2019-03-18T08:25:37.920Z,77.10
2019-03-18T08:28:07.143Z,76.40
2019-03-18T08:30:36.516Z,76.00
2019-03-18T08:33:05.840Z,75.80
2019-03-18T08:35:34.988Z,72.70
2019-03-18T08:38:04.231Z,74.30
2019-03-18T08:40:33.584Z,75.30
2019-03-18T08:43:02.709Z,75.90
2019-03-18T08:45:32.155Z,76.10
2019-03-18T08:48:01.291Z,77.30
2019-03-18T08:50:30.563Z,77.40
2019-03-18T08:52:59.769Z,78.00
2019-03-18T08:55:28.855Z,79.00
2019-03-18T08:57:58.015Z,78.70
2019-03-18T09:00:27.196Z,78.80
2019-03-18T09:02:56.532Z,78.60
2019-03-18T09:05:25.791Z,78.90
2019-03-18T09:07:55.159Z,77.40
2019-03-18T09:10:24.384Z,76.80
2019-03-18T09:12:53.543Z,76.60
2019-03-18T09:15:22.900Z,76.50
2019-03-18T09:17:51.982Z,77.00
2019-03-18T09:20:21.011Z,77.20
2019-03-18T09:22:50.184Z,77.00
2019-03-18T09:25:19.268Z,77.00
2019-03-18T09:27:48.536Z,77.00
2019-03-18T09:30:17.649Z,77.30
2019-03-18T09:32:46.826Z,77.20
2019-03-18T09:35:16.289Z,76.30
2019-03-18T09:37:45.529Z,75.60
2019-03-18T09:40:14.932Z,75.90
2019-03-18T09:42:44.236Z,74.40
2019-03-18T09:45:13.555Z,73.80
2019-03-18T09:47:42.816Z,75.00
2019-03-18T09:50:11.975Z,74.10
2019-03-18T09:52:41.158Z,74.10
2019-03-18T09:55:10.625Z,72.70
2019-03-18T09:57:39.864Z,73.00
2019-03-18T10:00:11.934Z,72.00
2019-03-18T10:02:40.052Z,72.40
2019-03-18T10:05:09.390Z,71.00
2019-03-18T10:07:38.679Z,72.10
2019-03-18T10:10:08.040Z,70.20
2019-03-18T10:12:37.300Z,69.40
2019-03-18T10:15:08.031Z,68.40
2019-03-18T10:17:37.272Z,69.30
2019-03-18T10:20:06.930Z,69.30
2019-03-18T10:22:36.259Z,67.80
2019-03-18T10:25:06.005Z,68.30
2019-03-18T10:27:37.650Z,69.30
2019-03-18T10:30:06.620Z,68.70
2019-03-18T10:32:35.978Z,68.60
2019-03-18T10:35:05.991Z,68.30
2019-03-18T10:37:35.277Z,68.90
2019-03-18T10:40:04.979Z,67.80
2019-03-18T10:42:36.369Z,68.60
2019-03-18T10:45:06.444Z,67.80
2019-03-18T10:47:35.709Z,67.80
2019-03-18T10:50:07.459Z,67.40
2019-03-18T10:52:36.711Z,64.60
2019-03-18T10:55:06.506Z,66.30
2019-03-18T10:57:35.636Z,67.50
2019-03-18T11:00:05.652Z,67.90
2019-03-18T11:02:34.925Z,68.30
2019-03-18T11:05:04.045Z,69.00
2019-03-18T11:07:33.260Z,67.40
2019-03-18T11:10:02.544Z,67.20
2019-03-18T11:12:31.658Z,62.10
2019-03-18T11:15:00.792Z,62.90
2019-03-18T11:17:30.002Z,66.40
2019-03-18T11:19:59.230Z,66.40
2019-03-18T11:22:28.433Z,61.30
2019-03-18T11:24:57.655Z,61.70
2019-03-18T11:27:26.786Z,62.20
2019-03-18T11:29:55.873Z,60.50
2019-03-18T11:32:25.051Z,60.80
2019-03-18T11:34:54.159Z,62.60
2019-03-18T11:37:23.380Z,62.60
2019-03-18T11:39:52.481Z,64.10
2019-03-18T11:42:21.761Z,64.50
2019-03-18T11:44:51.723Z,65.10
2019-03-18T11:47:21.056Z,65.30
2019-03-18T11:49:50.127Z,65.00
2019-03-18T11:52:19.370Z,66.30
2019-03-18T11:54:48.553Z,66.30
2019-03-18T11:57:17.779Z,67.40
2019-03-18T11:59:47.205Z,68.00
2019-03-18T12:02:27.246Z,65.40
2019-03-18T12:04:47.253Z,61.10
2019-03-18T12:07:16.449Z,63.40
2019-03-18T12:09:45.555Z,65.00
2019-03-18T12:12:15.562Z,63.20
2019-03-18T12:14:44.807Z,64.90
2019-03-18T12:17:14.435Z,65.60
2019-03-18T12:19:43.633Z,65.00
2019-03-18T12:22:12.711Z,65.50
2019-03-18T12:24:41.955Z,64.60
2019-03-18T12:27:11.125Z,63.70
2019-03-18T12:29:40.517Z,64.00
2019-03-18T12:32:09.652Z,64.30
2019-03-18T12:34:38.911Z,64.50
2019-03-18T12:37:08.282Z,65.50
2019-03-18T12:39:37.525Z,65.00
2019-03-18T12:42:06.880Z,66.50
2019-03-18T12:44:36.292Z,65.30
2019-03-18T12:47:05.395Z,65.70
2019-03-18T12:49:34.677Z,65.60
2019-03-18T12:52:03.846Z,65.40
2019-03-18T12:54:33.054Z,65.60
2019-03-18T12:57:02.295Z,65.90
2019-03-18T12:59:31.442Z,65.40
2019-03-18T13:02:02.832Z,65.40
2019-03-18T13:04:34.098Z,66.60
2019-03-18T13:07:02.933Z,66.40
2019-03-18T13:09:32.133Z,66.40
2019-03-18T13:12:01.509Z,66.40
2019-03-18T13:14:30.619Z,64.80
2019-03-18T13:17:03.307Z,64.60
2019-03-18T13:19:32.429Z,65.70
2019-03-18T13:22:01.652Z,66.10
2019-03-18T13:24:30.899Z,64.10
2019-03-18T13:27:00.171Z,65.80
2019-03-18T13:29:29.348Z,65.30
2019-03-18T13:31:58.488Z,64.20
2019-03-18T13:34:27.716Z,64.90
2019-03-18T13:36:57.291Z,63.60
2019-03-18T13:39:26.472Z,64.80
2019-03-18T13:41:55.756Z,62.60
2019-03-18T13:44:25.338Z,63.30
2019-03-18T13:46:54.484Z,61.80
2019-03-18T13:49:23.929Z,63.30
2019-03-18T13:51:53.032Z,62.00
2019-03-18T13:54:22.267Z,62.50
2019-03-18T13:56:51.415Z,62.30
2019-03-18T13:59:20.580Z,63.40
2019-03-18T14:01:49.719Z,60.90
2019-03-18T14:04:18.917Z,62.80
2019-03-18T14:06:48.093Z,59.60
2019-03-18T14:09:17.320Z,61.30
2019-03-18T14:11:58.994Z,59.90
2019-03-18T14:14:33.361Z,58.90
2019-03-18T14:17:02.487Z,60.30
2019-03-18T14:19:31.904Z,62.50
2019-03-18T14:22:01.057Z,63.30
2019-03-18T14:24:30.304Z,60.00
2019-03-18T14:26:59.559Z,60.00
2019-03-18T14:29:28.666Z,60.20
2019-03-18T14:31:57.832Z,58.80
2019-03-18T14:34:26.942Z,61.80
2019-03-18T14:36:56.040Z,60.10
2019-03-18T14:39:25.200Z,60.50
2019-03-18T14:41:54.358Z,57.70
2019-03-18T14:44:23.510Z,58.80
2019-03-18T14:46:52.643Z,57.40
2019-03-18T14:49:21.716Z,57.20
2019-03-18T14:51:50.851Z,57.00
2019-03-18T14:54:20.147Z,56.90
2019-03-18T14:56:49.256Z,59.20
2019-03-18T14:59:18.547Z,58.50
2019-03-18T15:01:47.939Z,57.90
2019-03-18T15:04:16.987Z,55.40
2019-03-18T15:06:46.080Z,54.80
2019-03-18T15:09:15.275Z,55.70
2019-03-18T15:11:44.432Z,58.20
2019-03-18T15:14:13.578Z,58.60
2019-03-18T15:16:42.701Z,57.90
2019-03-18T15:19:11.910Z,57.60
2019-03-18T15:21:41.021Z,58.60
2019-03-18T15:24:16.960Z,58.70
2019-03-18T15:26:41.295Z,60.00
2019-03-18T15:29:10.542Z,61.00
2019-03-18T15:31:39.687Z,60.30
2019-03-18T15:34:08.888Z,60.80
2019-03-18T15:36:38.107Z,61.90
2019-03-18T15:39:08.008Z,62.00
2019-03-18T15:41:37.174Z,62.50
2019-03-18T15:44:06.389Z,63.10
2019-03-18T15:46:35.571Z,62.20
2019-03-18T15:49:04.894Z,62.40
2019-03-18T15:51:34.054Z,60.60
2019-03-18T15:54:03.222Z,61.60
2019-03-18T15:56:32.333Z,61.30
2019-03-18T15:59:01.576Z,61.00
2019-03-18T16:01:30.661Z,60.80
2019-03-18T16:04:19.018Z,59.70
2019-03-18T16:06:48.096Z,60.40
2019-03-18T16:09:17.315Z,60.70
2019-03-18T16:11:46.940Z,61.30
2019-03-18T16:14:16.056Z,62.30
2019-03-18T16:16:45.456Z,62.60
2019-03-18T16:19:14.571Z,61.70
2019-03-18T16:21:43.773Z,61.50
2019-03-18T16:24:12.927Z,61.90
2019-03-18T16:26:42.274Z,61.40
2019-03-18T16:29:11.695Z,59.90
2019-03-18T16:31:41.060Z,61.00
2019-03-18T16:34:10.299Z,62.30
2019-03-18T16:36:39.691Z,62.60
2019-03-18T16:39:08.933Z,62.70
2019-03-18T16:41:38.348Z,63.20
2019-03-18T16:44:07.500Z,59.10
2019-03-18T16:46:36.679Z,60.30
2019-03-18T16:49:05.795Z,60.30
2019-03-18T16:51:35.333Z,62.00
2019-03-18T16:54:04.572Z,61.40
2019-03-18T16:56:33.918Z,61.50
2019-03-18T16:59:22.188Z,61.60
2019-03-18T17:01:51.364Z,60.50
2019-03-18T17:04:20.554Z,59.90
2019-03-18T17:06:49.779Z,59.50
2019-03-18T17:09:19.085Z,60.20
2019-03-18T17:11:48.366Z,59.50
2019-03-18T17:14:17.664Z,58.30
2019-03-18T17:16:46.983Z,58.00
2019-03-18T17:19:16.083Z,58.40
2019-03-18T17:21:45.771Z,59.30
2019-03-18T17:24:15.062Z,59.90
2019-03-18T17:26:44.232Z,60.90
2019-03-18T17:29:13.404Z,61.50
2019-03-18T17:31:42.560Z,61.40
2019-03-18T17:34:11.791Z,61.60
2019-03-18T17:36:40.903Z,62.40
2019-03-18T17:39:10.540Z,61.90
2019-03-18T17:41:39.661Z,61.30
2019-03-18T17:44:08.968Z,61.90
2019-03-18T17:46:38.218Z,62.70
2019-03-18T17:49:08.327Z,62.90
2019-03-18T17:51:37.550Z,62.50
2019-03-18T17:54:06.666Z,62.40
2019-03-18T17:56:35.932Z,62.30
2019-03-18T17:59:08.467Z,62.20
2019-03-18T18:01:37.699Z,61.90
2019-03-18T18:04:07.042Z,61.70
2019-03-18T18:06:36.220Z,62.50
2019-03-18T18:09:07.774Z,62.80
2019-03-18T18:11:37.331Z,63.10
2019-03-18T18:14:06.607Z,64.10
2019-03-18T18:16:35.851Z,63.20
2019-03-18T18:19:05.023Z,62.20
2019-03-18T18:21:34.171Z,63.10
2019-03-18T18:24:03.529Z,62.90
2019-03-18T18:26:32.779Z,62.90
2019-03-18T18:29:01.890Z,62.60
2019-03-18T18:31:31.169Z,62.10
2019-03-18T18:34:00.212Z,63.00
2019-03-18T18:36:29.290Z,63.20
2019-03-18T18:38:58.424Z,63.30
2019-03-18T18:41:27.452Z,63.60
2019-03-18T18:43:56.737Z,63.50
2019-03-18T18:46:25.834Z,63.90
2019-03-18T18:48:55.104Z,63.70
2019-03-18T18:51:24.301Z,63.90
2019-03-18T18:53:53.493Z,63.90
2019-03-18T18:56:22.547Z,64.30
2019-03-18T18:58:51.904Z,64.30
2019-03-18T19:01:21.141Z,64.10
2019-03-18T19:03:50.420Z,64.00
2019-03-18T19:06:19.512Z,64.10
2019-03-18T19:08:48.820Z,64.40
2019-03-18T19:11:17.909Z,64.30
2019-03-18T19:13:47.219Z,64.50
2019-03-18T19:16:16.364Z,64.30
2019-03-18T19:18:45.508Z,64.60
2019-03-18T19:21:14.605Z,64.50
2019-03-18T19:23:44.000Z,64.60
2019-03-18T19:26:25.063Z,64.60
2019-03-18T19:28:54.435Z,64.70
2019-03-18T19:31:23.672Z,65.00
2019-03-18T19:33:53.096Z,65.00
2019-03-18T19:36:22.570Z,64.90
2019-03-18T19:38:51.852Z,64.60
2019-03-18T19:41:20.943Z,64.90
2019-03-18T19:43:50.095Z,65.00
2019-03-18T19:46:38.346Z,65.10
2019-03-18T19:49:07.539Z,65.20
2019-03-18T19:51:37.830Z,65.30
2019-03-18T19:54:06.986Z,65.20
2019-03-18T19:56:36.153Z,65.40
2019-03-18T19:59:05.537Z,65.40
2019-03-18T20:01:34.816Z,65.60
2019-03-18T20:04:04.159Z,65.90
2019-03-18T20:06:33.665Z,65.90
2019-03-18T20:09:03.028Z,65.80
2019-03-18T20:11:32.233Z,66.20
2019-03-18T20:14:01.399Z,65.90
2019-03-18T20:16:30.556Z,66.30
2019-03-18T20:18:59.652Z,66.40
2019-03-18T20:21:28.746Z,66.70
2019-03-18T20:24:01.103Z,66.80
2019-03-18T20:26:30.361Z,66.90
2019-03-18T20:29:00.349Z,66.90
2019-03-18T20:31:29.632Z,67.00
2019-03-18T20:33:58.826Z,66.80
2019-03-18T20:36:28.042Z,67.20
2019-03-18T20:38:57.132Z,67.00
2019-03-18T20:41:26.419Z,67.60
2019-03-18T20:43:55.927Z,67.90
2019-03-18T20:46:25.009Z,67.70
2019-03-18T20:48:54.238Z,67.50
2019-03-18T20:51:23.459Z,67.60
2019-03-18T20:53:52.928Z,67.70
2019-03-18T20:56:22.076Z,67.70
2019-03-18T20:58:51.209Z,67.90
2019-03-18T21:01:20.414Z,68.10
2019-03-18T21:03:49.564Z,67.90
2019-03-18T21:06:18.792Z,67.70
2019-03-18T21:08:47.964Z,68.20
2019-03-18T21:11:17.545Z,67.90
2019-03-18T21:13:56.781Z,68.00
2019-03-18T21:16:17.810Z,68.00
2019-03-18T21:18:47.040Z,68.40
2019-03-18T21:21:16.478Z,68.00
2019-03-18T21:23:46.095Z,68.40
2019-03-18T21:26:15.493Z,68.40
2019-03-18T21:28:44.521Z,68.10
2019-03-18T21:31:13.900Z,68.50
2019-03-18T21:33:43.120Z,68.80
2019-03-18T21:36:12.447Z,68.40
2019-03-18T21:38:41.578Z,68.60
2019-03-18T21:41:10.855Z,68.70
2019-03-18T21:43:39.906Z,68.50
2019-03-18T21:46:09.288Z,68.50
2019-03-18T21:48:38.861Z,69.30
2019-03-18T21:51:09.773Z,68.70
2019-03-18T21:53:39.586Z,68.90
2019-03-18T21:56:09.082Z,69.20
2019-03-18T21:58:38.466Z,69.20
2019-03-18T22:01:07.851Z,69.20
2019-03-18T22:03:37.011Z,68.90
2019-03-18T22:06:06.124Z,69.10
2019-03-18T22:08:35.407Z,69.40
2019-03-18T22:11:04.671Z,69.20
2019-03-18T22:13:35.428Z,69.30
2019-03-18T22:16:04.631Z,69.30
2019-03-18T22:18:33.913Z,69.60
2019-03-18T22:21:03.045Z,69.80
2019-03-18T22:23:32.484Z,69.60
2019-03-18T22:26:01.605Z,70.60
2019-03-18T22:28:30.931Z,70.60
2019-03-18T22:31:00.612Z,70.20
2019-03-18T22:33:30.516Z,70.40
2019-03-18T22:35:59.643Z,70.30
2019-03-18T22:38:38.321Z,70.40
2019-03-18T22:41:07.657Z,70.90
2019-03-18T22:44:18.833Z,70.60
2019-03-18T22:47:09.835Z,70.50
2019-03-18T22:49:57.729Z,70.50
2019-03-18T22:52:36.871Z,71.10
2019-03-18T22:55:24.058Z,71.60
2019-03-18T22:58:12.700Z,70.90
2019-03-18T23:00:49.389Z,71.20
2019-03-18T23:03:18.953Z,71.40
2019-03-18T23:05:48.346Z,70.90
2019-03-18T23:08:17.682Z,71.00
2019-03-18T23:10:46.940Z,71.60
2019-03-18T23:13:16.085Z,71.30
2019-03-18T23:15:45.296Z,71.20
2019-03-18T23:18:14.767Z,71.40
2019-03-18T23:20:43.919Z,71.40
2019-03-18T23:23:13.408Z,71.70
2019-03-18T23:25:42.531Z,71.20
2019-03-18T23:28:11.750Z,71.30
2019-03-18T23:30:40.874Z,71.00
2019-03-18T23:33:10.051Z,70.90
2019-03-18T23:35:39.188Z,71.40
2019-03-18T23:38:08.427Z,71.50
2019-03-18T23:40:37.623Z,71.70
2019-03-18T23:43:06.827Z,71.40
2019-03-18T23:45:36.042Z,71.40
2019-03-18T23:48:05.336Z,71.90
2019-03-18T23:50:34.679Z,71.80
2019-03-18T23:53:03.922Z,72.40
2019-03-18T23:55:33.218Z,71.60
2019-03-18T23:58:02.689Z,71.60
